Time;durP1;ratioP1;P1;durP2;ratioP2;P2;SDS_P1;SDS_P2;PMS_P1;PMS_P2;Temp;Humidity;BMP_temperature;BMP_pressure;BME280_temperature;BME280_humidity;BME280_pressure;Samples;Min_cycle;Max_cycle;Signal;HPM_P1;HPM_P2
2022/07/10 00:02:18;;;;;;;1.40;1.10;;;;;;;29.31;34.25;99528.33;1850300;76;28121;-46
2022/07/10 00:05:08;;;;;;;1.10;1.10;;;;;;;29.35;34.20;99533.02;1840077;77;36419;-45
2022/07/10 00:07:56;;;;;;;1.60;1.25;;;;;;;29.36;34.21;99526.36;1861035;76;28104;-44
2022/07/10 00:10:45;;;;;;;1.30;1.20;;;;;;;29.39;34.15;99529.13;1843590;76;28341;-43
2022/07/10 00:13:33;;;;;;;2.10;1.20;;;;;;;29.36;34.17;99525.52;1852048;76;28148;-44
2022/07/10 00:16:21;;;;;;;1.40;1.30;;;;;;;29.33;34.24;99526.10;1853682;76;28115;-45
2022/07/10 00:19:09;;;;;;;1.80;1.30;;;;;;;29.33;34.27;99518.64;1850494;76;28168;-45
2022/07/10 00:21:58;;;;;;;1.30;1.30;;;;;;;29.32;34.26;99525.81;1849995;76;28225;-43
2022/07/10 00:24:46;;;;;;;1.22;1.10;;;;;;;29.36;34.28;99526.91;1853949;76;28128;-44
2022/07/10 00:27:34;;;;;;;1.10;1.10;;;;;;;29.33;34.29;99526.10;1840192;77;28182;-46
2022/07/10 00:30:23;;;;;;;1.20;1.20;;;;;;;29.30;34.29;99518.34;1860915;76;28226;-46
2022/07/10 00:33:11;;;;;;;2.20;1.30;;;;;;;29.30;34.30;99522.50;1860933;75;28187;-43
2022/07/10 00:36:00;;;;;;;1.20;1.12;;;;;;;29.31;34.30;99521.41;1840009;77;28126;-45
2022/07/10 00:38:48;;;;;;;1.10;1.10;;;;;;;29.32;34.30;99519.73;1851027;76;28036;-44
2022/07/10 00:41:37;;;;;;;2.40;1.10;;;;;;;29.32;34.32;99525.27;1850484;76;28107;-44
2022/07/10 00:44:25;;;;;;;2.72;1.20;;;;;;;29.28;34.31;99521.41;1850340;76;28189;-44
2022/07/10 00:47:17;;;;;;;1.20;1.20;;;;;;;29.28;34.37;99517.25;1855171;76;28481;-47
2022/07/10 00:50:05;;;;;;;1.20;1.20;;;;;;;29.30;34.35;99512.81;1861401;76;28163;-46
2022/07/10 00:52:53;;;;;;;1.40;1.30;;;;;;;29.28;34.40;99510.88;1865342;76;28168;-44
2022/07/10 00:55:42;;;;;;;1.90;1.30;;;;;;;29.26;34.42;99507.02;1851586;76;28222;-44
2022/07/10 00:58:31;;;;;;;1.00;1.00;;;;;;;29.28;34.36;99503.97;1840075;77;28183;-45
2022/07/10 01:01:20;;;;;;;1.20;1.20;;;;;;;29.29;34.39;99506.44;1860768;76;28172;-43
2022/07/10 01:04:09;;;;;;;1.22;1.12;;;;;;;29.30;34.33;99509.50;1860802;76;28043;-44
2022/07/10 01:06:58;;;;;;;1.00;1.00;;;;;;;29.27;34.41;99509.21;1859756;76;28067;-46
2022/07/10 01:09:47;;;;;;;1.82;1.22;;;;;;;29.26;34.44;99508.41;1854214;76;28113;-45
2022/07/10 01:12:36;;;;;;;1.05;1.05;;;;;;;29.30;34.35;99503.97;1841244;76;28188;-43
2022/07/10 01:15:24;;;;;;;1.00;1.00;;;;;;;29.30;34.36;99501.75;1861015;76;28134;-44
2022/07/10 01:18:13;;;;;;;1.00;1.00;;;;;;;29.29;34.36;99503.67;1858215;76;28041;-45
2022/07/10 01:21:02;;;;;;;1.30;1.10;;;;;;;29.27;34.38;99500.36;1852673;76;28086;-45
2022/07/10 01:23:51;;;;;;;1.50;1.40;;;;;;;29.27;34.34;99505.06;1850405;76;28054;-44
2022/07/10 01:26:43;;;;;;;1.20;1.20;;;;;;;29.31;34.25;99506.19;1850322;76;28132;-46
2022/07/10 01:29:32;;;;;;;0.90;0.90;;;;;;;29.30;34.30;99505.89;1853164;76;28145;-44
2022/07/10 01:32:20;;;;;;;1.17;1.07;;;;;;;29.29;34.32;99498.72;1839667;77;28207;-43
2022/07/10 01:35:11;;;;;;;1.30;1.10;;;;;;;29.31;34.28;99502.03;1860697;76;28191;-44
2022/07/10 01:37:59;;;;;;;1.92;1.10;;;;;;;29.29;34.31;99505.06;1860305;76;28039;-44
2022/07/10 01:40:47;;;;;;;1.10;1.10;;;;;;;29.29;34.30;99504.25;1870966;76;28109;-45
2022/07/10 01:43:37;;;;;;;1.10;1.10;;;;;;;29.31;34.23;99500.65;1849560;76;28039;-44
2022/07/10 01:46:26;;;;;;;1.30;1.10;;;;;;;29.30;34.19;99500.36;1849344;76;28112;-45
2022/07/10 01:49:15;;;;;;;1.30;1.20;;;;;;;29.28;34.24;99495.66;1851282;76;28682;-42
2022/07/10 01:52:04;;;;;;;1.00;1.00;;;;;;;29.26;34.27;99502.88;1839133;77;28225;-48
2022/07/10 01:54:52;;;;;;;1.20;1.20;;;;;;;29.29;34.20;99503.67;1839261;77;28242;-44
2022/07/10 01:57:41;;;;;;;1.42;1.32;;;;;;;29.27;34.23;99501.75;1842239;76;28234;-43
2022/07/10 02:00:29;;;;;;;1.22;1.12;;;;;;;29.27;34.25;99497.59;1852234;76;28124;-44
2022/07/10 02:06:23;;;;;;;0.90;0.90;;;;;;;29.30;34.22;99499.81;1839180;77;28130;-46
2022/07/10 02:09:14;;;;;;;1.22;1.20;;;;;;;29.23;34.25;99502.58;1860536;76;28137;-44
2022/07/10 02:12:02;;;;;;;1.30;1.20;;;;;;;29.26;34.24;99502.03;1838998;76;28121;-44
2022/07/10 02:14:51;;;;;;;1.60;1.10;;;;;;;29.20;34.23;99503.13;1855404;76;28210;-43
2022/07/10 02:17:39;;;;;;;1.27;1.22;;;;;;;29.25;34.24;99510.05;1838880;76;28248;-43
2022/07/10 02:20:28;;;;;;;1.10;1.10;;;;;;;29.26;34.22;99513.10;1860043;76;28160;-47
2022/07/10 02:23:16;;;;;;;1.17;1.10;;;;;;;29.28;34.13;99508.12;1858332;76;28086;-45
2022/07/10 02:26:05;;;;;;;1.40;1.20;;;;;;;29.26;34.10;99508.41;1852563;76;28093;-45
2022/07/10 02:28:53;;;;;;;1.12;1.12;;;;;;;29.26;34.10;99509.79;1862942;76;28145;-43
2022/07/10 02:31:42;;;;;;;1.27;1.15;;;;;;;29.26;34.06;99512.55;1839285;77;30178;-45
2022/07/10 02:34:30;;;;;;;1.30;1.20;;;;;;;29.27;34.03;99512.81;1857803;75;28168;-45
2022/07/10 02:37:19;;;;;;;1.10;1.10;;;;;;;29.25;34.06;99512.27;1852289;76;28092;-46
2022/07/10 02:40:09;;;;;;;1.75;1.07;;;;;;;29.27;33.98;99520.28;1850219;76;28097;-44
2022/07/10 02:42:57;;;;;;;1.02;1.02;;;;;;;29.25;33.94;99516.42;1850002;76;28249;-45
2022/07/10 02:45:46;;;;;;;1.30;1.20;;;;;;;29.23;33.94;99514.48;1854328;76;28112;-45
2022/07/10 02:48:35;;;;;;;1.00;1.00;;;;;;;29.25;33.95;99516.97;1851405;76;28031;-43
2022/07/10 02:51:23;;;;;;;1.27;1.17;;;;;;;29.28;33.86;99521.95;1843859;76;28157;-44
2022/07/10 02:54:11;;;;;;;1.00;1.00;;;;;;;29.27;33.94;99524.43;1859076;76;28067;-44
2022/07/10 02:56:59;;;;;;;1.27;1.17;;;;;;;29.27;33.83;99527.20;1839954;77;28197;-44
2022/07/10 02:59:47;;;;;;;1.00;1.00;;;;;;;29.24;33.86;99523.63;1850328;76;28092;-45
2022/07/10 03:02:36;;;;;;;1.22;1.10;;;;;;;29.22;33.90;99522.50;1850073;76;28157;-48
2022/07/10 03:05:24;;;;;;;1.30;1.20;;;;;;;29.25;33.87;99528.03;1850468;76;28114;-45
2022/07/10 03:08:14;;;;;;;1.65;1.00;;;;;;;29.26;33.86;99521.41;1839825;77;28121;-45
2022/07/10 03:11:02;;;;;;;1.12;1.10;;;;;;;29.28;33.79;99520.02;1860376;76;28176;-43
2022/07/10 03:13:51;;;;;;;0.90;0.90;;;;;;;29.29;33.77;99525.01;1860748;76;28119;-44
2022/07/10 03:16:38;;;;;;;1.10;1.10;;;;;;;29.27;33.84;99523.05;1859376;76;28071;-43
2022/07/10 03:19:27;;;;;;;1.80;1.10;;;;;;;29.24;33.87;99520.28;1871074;76;28092;-44
2022/07/10 03:22:15;;;;;;;1.10;1.10;;;;;;;29.22;33.85;99525.84;1850104;76;28032;-46
2022/07/10 03:25:05;;;;;;;1.17;1.10;;;;;;;29.23;33.81;99526.10;1868292;76;28155;-45
2022/07/10 03:27:54;;;;;;;1.32;1.20;;;;;;;29.26;33.73;99526.94;1858210;76;28089;-43
2022/07/10 03:30:42;;;;;;;1.00;1.00;;;;;;;29.26;33.71;99523.63;1858461;76;28129;-43
2022/07/10 03:33:31;;;;;;;1.30;1.20;;;;;;;29.25;33.73;99523.88;1865645;76;28120;-45
2022/07/10 03:36:19;;;;;;;1.57;1.20;;;;;;;29.21;33.77;99523.63;1850822;76;28252;-45
2022/07/10 03:39:08;;;;;;;0.98;0.98;;;;;;;29.23;33.74;99519.19;1839581;77;28585;-45
2022/07/10 03:41:57;;;;;;;1.05;1.05;;;;;;;29.25;33.67;99515.03;1860384;76;28152;-43
2022/07/10 03:44:45;;;;;;;1.17;1.17;;;;;;;29.24;33.69;99520.28;1860641;76;28090;-46
2022/07/10 03:47:33;;;;;;;1.20;1.15;;;;;;;29.28;33.64;99520.56;1859133;76;28167;-45
2022/07/10 03:50:22;;;;;;;1.90;1.20;;;;;;;29.23;33.63;99524.72;1853229;76;28217;-45
2022/07/10 03:53:10;;;;;;;1.12;1.12;;;;;;;29.19;33.63;99518.92;1849890;76;31092;-45
2022/07/10 03:56:00;;;;;;;1.00;1.00;;;;;;;29.20;33.60;99525.27;1850255;76;28275;-45
2022/07/10 03:58:48;;;;;;;0.95;0.95;;;;;;;29.18;33.68;99520.56;1853652;76;28175;-43
2022/07/10 04:01:36;;;;;;;0.93;0.93;;;;;;;29.18;33.67;99521.95;1851189;76;28098;-44
2022/07/10 04:04:25;;;;;;;1.20;1.10;;;;;;;29.22;33.62;99520.31;1865227;76;28099;-44
2022/07/10 04:07:14;;;;;;;1.00;1.00;;;;;;;29.17;33.68;99523.05;1860533;76;28037;-45
2022/07/10 04:10:03;;;;;;;0.90;0.90;;;;;;;29.20;33.67;99523.33;1855391;76;28036;-46
2022/07/10 04:12:52;;;;;;;1.70;1.10;;;;;;;29.15;33.71;99523.88;1850420;76;28541;-44
2022/07/10 04:15:40;;;;;;;0.93;0.93;;;;;;;29.13;33.76;99522.75;1849910;76;28102;-43
2022/07/10 04:18:28;;;;;;;1.07;1.07;;;;;;;29.09;33.81;99519.44;1870861;76;28087;-44
2022/07/10 04:21:17;;;;;;;1.50;1.10;;;;;;;29.07;33.89;99525.25;1856424;76;28209;-45
2022/07/10 04:24:06;;;;;;;1.00;1.00;;;;;;;29.08;33.91;99533.81;1870054;76;28054;-43
2022/07/10 04:26:54;;;;;;;0.90;0.90;;;;;;;29.08;33.95;99527.47;1849656;76;28166;-44
2022/07/10 04:29:42;;;;;;;0.90;0.90;;;;;;;29.11;33.86;99530.50;1852152;76;28200;-45
2022/07/10 04:32:32;;;;;;;0.90;0.90;;;;;;;29.09;33.88;99528.57;1839369;77;28165;-43
2022/07/10 04:35:20;;;;;;;0.93;0.93;;;;;;;29.09;33.90;99528.57;1847049;76;28070;-44
2022/07/10 04:38:08;;;;;;;0.97;0.97;;;;;;;29.15;33.82;99537.13;1873911;75;28296;-45
2022/07/10 04:40:56;;;;;;;1.10;1.10;;;;;;;29.12;33.86;99531.34;1869375;76;28133;-45
2022/07/10 04:43:45;;;;;;;1.10;1.10;;;;;;;29.11;33.90;99531.05;1881023;75;28299;-44
2022/07/10 04:46:33;;;;;;;0.95;0.95;;;;;;;29.07;33.97;99526.64;1880454;75;28147;-45
2022/07/10 04:49:22;;;;;;;0.90;0.90;;;;;;;29.10;33.98;99534.94;1879902;75;28141;-43
2022/07/10 04:52:10;;;;;;;1.00;1.00;;;;;;;29.09;33.99;99531.34;1885627;75;28112;-44
2022/07/10 04:54:59;;;;;;;1.52;1.17;;;;;;;29.08;34.01;99533.81;1880182;75;28279;-45
2022/07/10 04:57:47;;;;;;;1.07;1.07;;;;;;;29.08;33.98;99535.77;1879948;75;28322;-44
2022/07/10 05:00:36;;;;;;;0.90;0.90;;;;;;;29.05;34.01;99533.55;1881564;75;28216;-44
2022/07/10 05:03:24;;;;;;;1.10;1.10;;;;;;;29.05;34.00;99533.55;1884088;75;28072;-46
2022/07/10 05:06:12;;;;;;;1.00;1.00;;;;;;;29.04;34.02;99523.58;1880132;75;28100;-44
2022/07/10 05:09:01;;;;;;;2.70;1.05;;;;;;;29.04;34.09;99530.49;1880160;75;28208;-44
2022/07/10 05:11:49;;;;;;;1.00;1.00;;;;;;;29.06;34.04;99526.89;1883314;75;38175;-44
2022/07/10 05:14:38;;;;;;;1.17;1.07;;;;;;;29.05;34.02;99530.78;1882018;75;28202;-43
2022/07/10 05:17:31;;;;;;;1.07;1.07;;;;;;;29.02;34.04;99529.39;1879986;75;28099;-46
2022/07/10 05:20:20;;;;;;;1.05;1.00;;;;;;;29.04;34.07;99529.95;1880130;75;28187;-45
2022/07/10 05:23:09;;;;;;;1.10;1.10;;;;;;;29.04;34.03;99527.73;1884366;75;28285;-43
2022/07/10 05:25:57;;;;;;;1.02;1.00;;;;;;;29.02;34.06;99520.27;1881711;75;28133;-44
2022/07/10 05:28:46;;;;;;;1.10;1.10;;;;;;;29.01;34.06;99526.34;1880130;75;28164;-44
2022/07/10 05:31:34;;;;;;;1.10;1.10;;;;;;;29.03;34.07;99521.39;1880103;75;28167;-45
2022/07/10 05:34:22;;;;;;;1.10;1.10;;;;;;;29.02;34.09;99519.72;1885520;75;28217;-44
2022/07/10 05:37:10;;;;;;;0.90;0.90;;;;;;;29.01;34.09;99523.58;1890591;75;28722;-46
2022/07/10 05:39:59;;;;;;;1.00;1.00;;;;;;;29.04;34.07;99526.34;1860759;76;28186;-44
2022/07/10 05:42:47;;;;;;;1.02;1.02;;;;;;;29.04;34.08;99522.20;1859567;76;28558;-45
2022/07/10 05:45:36;;;;;;;1.00;1.00;;;;;;;29.05;34.06;99528.02;1853936;76;28171;-44
2022/07/10 05:48:24;;;;;;;1.00;1.00;;;;;;;29.04;34.07;99520.27;1849826;76;28113;-43
2022/07/10 05:51:13;;;;;;;0.90;0.90;;;;;;;29.05;34.10;99521.94;1850190;76;28133;-44
2022/07/10 05:54:01;;;;;;;1.20;1.10;;;;;;;29.06;34.06;99519.98;1853197;76;28138;-46
2022/07/10 05:56:51;;;;;;;1.07;1.03;;;;;;;29.03;34.10;99524.70;1851769;76;28104;-44
2022/07/10 05:59:39;;;;;;;1.07;1.07;;;;;;;29.04;34.11;99522.20;1850073;76;28134;-44
2022/07/10 06:02:28;;;;;;;1.10;1.10;;;;;;;29.02;34.15;99519.72;1850021;76;28226;-43
2022/07/10 06:05:16;;;;;;;0.95;0.95;;;;;;;29.02;34.15;99523.03;1854994;76;28184;-44
2022/07/10 06:08:05;;;;;;;1.10;1.10;;;;;;;29.01;34.19;99524.16;1850340;76;28041;-44
2022/07/10 06:10:53;;;;;;;1.20;1.20;;;;;;;29.04;34.18;99529.11;1850019;76;28111;-44
2022/07/10 06:13:42;;;;;;;1.10;1.10;;;;;;;29.05;34.18;99534.93;1850371;76;28153;-44
2022/07/10 06:16:30;;;;;;;1.07;1.07;;;;;;;29.07;34.17;99541.02;1839667;77;28167;-45
2022/07/10 06:19:18;;;;;;;1.20;1.20;;;;;;;29.02;34.19;99532.16;1849109;76;28051;-44
2022/07/10 06:25:12;;;;;;;1.12;1.10;;;;;;;29.03;34.20;99534.38;1850111;76;28121;-45
2022/07/10 06:28:01;;;;;;;1.00;1.00;;;;;;;29.00;34.20;99533.55;1854934;74;28125;-44
2022/07/10 06:30:49;;;;;;;2.00;0.90;;;;;;;29.00;34.22;99533.55;1878474;75;28012;-45
2022/07/10 06:33:38;;;;;;;1.17;1.17;;;;;;;29.01;34.22;99531.88;1850679;75;28135;-44
2022/07/10 06:36:27;;;;;;;1.25;1.15;;;;;;;29.03;34.13;99530.23;1870076;76;28094;-46
2022/07/10 06:39:16;;;;;;;1.80;1.20;;;;;;;29.01;34.17;99526.92;1855604;75;28101;-44
2022/07/10 06:42:06;;;;;;;0.90;0.90;;;;;;;29.08;34.11;99526.09;1849519;76;28088;-46
2022/07/10 06:44:56;;;;;;;1.10;1.10;;;;;;;29.02;34.01;99529.39;1843879;76;28144;-44
2022/07/10 06:47:58;;;;;;;1.02;1.02;;;;;;;28.97;33.59;99526.63;1860121;76;28030;-46
2022/07/10 06:50:47;;;;;;;1.27;1.20;;;;;;;28.82;33.34;99527.17;1857022;76;28181;-45
2022/07/10 06:53:35;;;;;;;1.20;1.20;;;;;;;28.60;33.16;99526.86;1839374;76;28144;-43
2022/07/10 06:56:24;;;;;;;1.15;1.07;;;;;;;28.37;33.41;99522.34;1859922;76;28179;-44
2022/07/10 06:59:13;;;;;;;1.10;1.10;;;;;;;28.18;33.67;99523.94;1849222;76;28684;-45
2022/07/10 07:02:02;;;;;;;1.50;1.20;;;;;;;28.09;33.74;99526.41;1839072;77;28222;-45
2022/07/10 07:04:50;;;;;;;1.35;1.10;;;;;;;27.84;34.18;99520.16;1849732;76;28102;-43
2022/07/10 07:07:39;;;;;;;1.05;1.00;;;;;;;27.75;34.36;99512.69;1858082;76;28061;-45
2022/07/10 07:10:27;;;;;;;1.50;1.15;;;;;;;27.63;34.50;99510.69;1853243;76;28205;-46
2022/07/10 07:13:16;;;;;;;1.20;1.20;;;;;;;27.61;34.52;99523.35;1853778;76;28205;-53
2022/07/10 07:16:09;;;;;;;1.00;1.00;;;;;;;27.45;34.86;99510.56;1849527;76;28145;-53
2022/07/10 07:18:56;;;;;;;1.17;1.10;;;;;;;27.40;34.92;99512.74;1849328;76;28525;-52
2022/07/10 07:24:51;;;;;;;1.70;1.10;;;;;;;27.27;35.20;99508.20;1858161;76;28170;-56
2022/07/10 07:27:40;;;;;;;1.47;1.40;;;;;;;27.36;35.10;99507.45;1838599;76;28159;-56
2022/07/10 07:30:29;;;;;;;1.10;1.10;;;;;;;27.42;34.84;99510.28;1846503;76;38528;-53
2022/07/10 07:33:18;;;;;;;1.10;1.10;;;;;;;27.47;34.66;99504.23;1847345;76;28201;-55
2022/07/10 07:36:07;;;;;;;1.50;1.20;;;;;;;27.53;34.67;99500.96;1855732;76;28078;-56
2022/07/10 07:38:55;;;;;;;1.70;1.05;;;;;;;27.54;34.71;99503.44;1850793;76;28116;-52
2022/07/10 07:41:43;;;;;;;1.20;1.10;;;;;;;27.52;34.55;99502.05;1863992;75;28264;-53
2022/07/10 07:44:32;;;;;;;1.30;1.12;;;;;;;27.40;34.71;99503.09;1860018;76;28083;-54
2022/07/10 07:47:20;;;;;;;1.35;0.90;;;;;;;27.31;34.89;99503.81;1854761;76;28039;-52
2022/07/10 07:50:10;;;;;;;1.60;1.20;;;;;;;27.25;35.02;99494.69;1855359;76;28245;-52
2022/07/10 07:52:58;;;;;;;1.17;1.10;;;;;;;27.19;35.13;99497.69;1842354;76;28138;-51
2022/07/10 07:55:47;;;;;;;1.10;1.10;;;;;;;27.14;35.33;99491.55;1850008;76;28155;-53
2022/07/10 07:58:36;;;;;;;1.10;1.10;;;;;;;27.07;35.39;99487.39;1839010;77;28436;-51
2022/07/10 08:01:24;;;;;;;1.00;1.00;;;;;;;27.11;35.13;99478.86;1860167;76;28160;-50
2022/07/10 08:04:13;;;;;;;2.47;1.20;;;;;;;27.20;34.92;99478.11;1860097;76;28148;-51
2022/07/10 08:07:02;;;;;;;1.10;1.10;;;;;;;27.34;34.72;99477.92;1838984;77;28254;-51
2022/07/10 08:09:51;;;;;;;1.20;1.20;;;;;;;27.46;34.54;99481.89;1852538;76;28075;-50
2022/07/10 08:12:40;;;;;;;1.30;1.20;;;;;;;27.53;34.35;99478.34;1841311;76;28274;-50
2022/07/10 08:15:30;;;;;;;1.02;1.02;;;;;;;27.60;34.12;99476.17;1860223;76;28214;-49
2022/07/10 08:18:18;;;;;;;1.25;1.10;;;;;;;27.59;34.04;99474.50;1857099;76;28159;-51
2022/07/10 08:21:07;;;;;;;1.65;1.20;;;;;;;27.48;34.25;99467.81;1852134;76;28105;-53
2022/07/10 08:23:56;;;;;;;1.10;1.10;;;;;;;27.49;34.20;99463.97;1849407;76;28462;-53
2022/07/10 08:26:44;;;;;;;1.90;1.10;;;;;;;27.47;34.24;99466.98;1849075;76;28215;-55
2022/07/10 08:29:33;;;;;;;1.40;1.30;;;;;;;27.56;34.18;99459.05;1853329;76;28203;-56
2022/07/10 08:32:21;;;;;;;1.77;1.10;;;;;;;27.73;34.02;99455.52;1850646;76;28140;-54
2022/07/10 08:35:11;;;;;;;1.20;1.20;;;;;;;27.79;34.08;99452.53;1864622;76;28174;-52
2022/07/10 08:37:59;;;;;;;1.40;1.10;;;;;;;27.84;34.01;99447.01;1839876;76;28120;-52
2022/07/10 08:40:48;;;;;;;0.90;0.90;;;;;;;27.95;33.91;99438.23;1854268;76;28132;-57
2022/07/10 08:43:37;;;;;;;1.32;1.27;;;;;;;28.02;33.81;99433.31;1850333;76;28111;-59
2022/07/10 08:46:26;;;;;;;1.00;1.00;;;;;;;28.10;33.71;99440.24;1850125;76;28124;-59
2022/07/10 08:49:17;;;;;;;1.30;1.20;;;;;;;28.13;33.70;99438.30;1849977;76;28276;-59
2022/07/10 08:52:11;;;;;;;1.85;1.10;;;;;;;28.16;33.65;99434.45;1854559;76;28159;-58
2022/07/10 08:55:00;;;;;;;1.20;1.20;;;;;;;28.21;33.62;99429.48;1851178;76;28049;-58
2022/07/10 08:57:51;;;;;;;1.00;1.00;;;;;;;28.23;33.56;99423.97;1849988;74;28145;-58
2022/07/10 09:00:40;;;;;;;0.90;0.90;;;;;;;28.24;33.55;99430.33;1849070;76;28124;-59
2022/07/10 09:03:31;;;;;;;1.70;1.10;;;;;;;28.29;33.48;99418.72;1855828;76;28020;-59
2022/07/10 09:06:20;;;;;;;1.30;1.22;;;;;;;28.33;33.47;99420.40;1850734;76;28211;-59
2022/07/10 09:09:10;;;;;;;1.10;1.10;;;;;;;28.34;33.51;99415.13;1849703;76;28036;-59
2022/07/10 09:11:59;;;;;;;1.17;1.12;;;;;;;28.35;33.53;99408.52;1849300;76;28164;-59
2022/07/10 09:14:48;;;;;;;1.00;1.00;;;;;;;28.35;33.53;99405.20;1849387;76;28041;-58
2022/07/10 09:17:57;;;;;;;2.60;1.00;;;;;;;28.35;33.64;99397.47;1849532;76;28219;-59
2022/07/10 09:20:46;;;;;;;1.10;1.10;;;;;;;28.36;33.65;99399.11;1849601;76;28160;-59
2022/07/10 09:23:34;;;;;;;1.02;1.02;;;;;;;28.37;33.65;99391.94;1852490;76;28227;-59
2022/07/10 09:26:23;;;;;;;0.90;0.90;;;;;;;28.38;33.68;99393.58;1851927;76;28042;-59
2022/07/10 09:29:14;;;;;;;1.00;1.00;;;;;;;28.40;33.71;99391.37;1843117;76;28156;-59
2022/07/10 09:32:04;;;;;;;1.00;1.00;;;;;;;28.43;33.70;99399.12;1862397;76;28039;-60
2022/07/10 09:37:59;;;;;;;1.70;1.00;;;;;;;28.46;33.76;99399.13;1855665;76;28010;-54
2022/07/10 09:40:47;;;;;;;0.80;0.80;;;;;;;28.44;33.83;99396.65;1850330;76;28199;-55
2022/07/10 09:43:46;;;;;;;1.00;1.00;;;;;;;28.45;33.82;99391.37;1849512;75;28136;-54
2022/07/10 09:46:38;;;;;;;0.90;0.90;;;;;;;28.46;33.87;99381.16;1849223;76;28250;-58
2022/07/10 09:49:30;;;;;;;0.98;0.98;;;;;;;28.47;33.88;99387.78;1852543;76;28155;-58
2022/07/10 09:52:20;;;;;;;0.88;0.88;;;;;;;28.50;33.84;99385.02;1851969;76;28038;-59
2022/07/10 09:55:09;;;;;;;1.20;1.00;;;;;;;28.51;33.82;99376.48;1849357;76;28101;-58
2022/07/10 09:58:00;;;;;;;0.95;0.95;;;;;;;28.52;33.85;99380.08;1849575;76;28470;-58
2022/07/10 10:00:51;;;;;;;1.00;1.00;;;;;;;28.53;33.88;99371.50;1852198;76;28155;-57
2022/07/10 10:03:40;;;;;;;1.20;1.00;;;;;;;28.54;33.87;99364.84;1852610;76;28496;-60
2022/07/10 10:06:31;;;;;;;1.00;1.00;;;;;;;28.56;33.83;99365.97;1863230;76;28163;-59
2022/07/10 10:09:28;;;;;;;1.00;1.00;;;;;;;28.58;33.85;99365.97;1860078;76;28037;-58
2022/07/10 10:12:38;;;;;;;1.00;1.00;;;;;;;28.58;33.85;99357.68;1858685;76;28034;-58
2022/07/10 10:15:28;;;;;;;0.95;0.95;;;;;;;28.56;33.90;99354.37;1857446;76;28125;-58
2022/07/10 10:18:22;;;;;;;0.80;0.80;;;;;;;28.54;33.93;99351.03;1870439;76;28116;-57
2022/07/10 10:21:12;;;;;;;1.00;0.90;;;;;;;28.56;33.89;99343.31;1849376;76;28040;-58
2022/07/10 10:24:03;;;;;;;0.90;0.90;;;;;;;28.57;33.92;99344.95;1849327;76;28172;-59
2022/07/10 10:26:51;;;;;;;0.90;0.90;;;;;;;28.57;33.90;99338.05;1850720;76;28149;-59
2022/07/10 10:29:41;;;;;;;1.90;1.03;;;;;;;28.59;33.89;99327.56;1853000;76;28167;-58
2022/07/10 10:32:30;;;;;;;0.90;0.90;;;;;;;28.60;33.90;99326.47;1849279;76;28057;-58
2022/07/10 10:35:51;;;;;;;0.90;0.90;;;;;;;28.63;33.87;99320.40;1849626;76;28133;-58
2022/07/10 10:38:55;;;;;;;0.90;0.90;;;;;;;28.66;33.85;99316.22;1849321;76;28085;-58
2022/07/10 10:41:45;;;;;;;0.90;0.90;;;;;;;28.60;33.90;99322.33;1849285;76;28082;-58
2022/07/10 10:44:33;;;;;;;0.80;0.80;;;;;;;28.61;33.93;99321.20;1852313;75;28206;-58
2022/07/10 10:47:22;;;;;;;0.95;0.95;;;;;;;28.64;33.92;99308.77;1851428;76;28104;-58
2022/07/10 10:50:10;;;;;;;0.80;0.80;;;;;;;28.64;33.89;99310.14;1849677;76;28038;-60
2022/07/10 10:53:02;;;;;;;1.03;1.03;;;;;;;28.69;33.87;99314.28;1847749;76;28132;-58
2022/07/10 10:56:09;;;;;;;0.90;0.90;;;;;;;28.71;33.82;99311.52;1838977;77;28153;-58
2022/07/10 10:58:57;;;;;;;0.93;0.93;;;;;;;28.74;33.75;99305.44;1854098;76;28032;-58
2022/07/10 11:01:45;;;;;;;0.90;0.90;;;;;;;28.72;33.88;99298.53;1849415;76;30025;-58
2022/07/10 11:04:34;;;;;;;0.80;0.80;;;;;;;28.75;33.82;99300.17;1849238;76;28083;-58
2022/07/10 11:08:03;;;;;;;0.90;0.90;;;;;;;28.75;33.83;99284.16;1850976;76;28121;-57
2022/07/10 11:10:47;;;;;;;0.88;0.88;;;;;;;28.75;33.80;99284.97;1860770;76;28068;-57
2022/07/10 11:13:37;;;;;;;0.95;0.90;;;;;;;28.73;33.87;99278.89;1854836;76;28136;-58
2022/07/10 11:16:25;;;;;;;1.00;1.00;;;;;;;28.75;33.80;99279.44;1849085;76;28116;-58
2022/07/10 11:19:15;;;;;;;0.80;0.80;;;;;;;28.78;33.83;99270.34;1849595;76;28171;-58
2022/07/10 11:22:12;;;;;;;0.85;0.85;;;;;;;28.79;33.80;99266.45;1850006;76;28086;-57
2022/07/10 11:25:22;;;;;;;0.90;0.90;;;;;;;28.81;33.83;99265.60;1855572;76;28065;-58
2022/07/10 11:28:13;;;;;;;0.80;0.80;;;;;;;28.81;33.77;99255.92;1854564;76;28180;-57
2022/07/10 11:31:01;;;;;;;0.73;0.73;;;;;;;28.79;33.84;99256.22;1870527;76;28056;-58
2022/07/10 11:33:53;;;;;;;0.75;0.75;;;;;;;28.80;33.82;99251.52;1849319;76;28079;-56
2022/07/10 11:36:41;;;;;;;0.90;0.90;;;;;;;28.81;33.87;99240.72;1849688;76;28090;-58
2022/07/10 11:39:30;;;;;;;0.80;0.80;;;;;;;28.80;33.86;99241.27;1838822;77;28131;-55
2022/07/10 11:42:18;;;;;;;0.80;0.80;;;;;;;28.85;33.85;99247.34;1860013;76;28085;-58
2022/07/10 11:45:30;;;;;;;0.90;0.90;;;;;;;28.84;33.88;99241.00;1860621;75;28098;-59
2022/07/10 11:48:21;;;;;;;0.90;0.90;;;;;;;28.84;33.88;99254.83;1825623;77;28269;-59
2022/07/10 11:51:27;;;;;;;0.90;0.90;;;;;;;28.81;33.93;99254.00;1857872;76;28102;-58
2022/07/10 11:54:18;;;;;;;0.90;0.90;;;;;;;28.83;33.91;99249.55;1856373;76;28020;-57
2022/07/10 11:57:08;;;;;;;0.82;0.82;;;;;;;28.82;33.97;99250.69;1851127;76;28058;-57
2022/07/10 11:59:56;;;;;;;0.82;0.82;;;;;;;28.85;33.95;99237.66;1864132;76;31999;-55
2022/07/10 12:02:44;;;;;;;0.90;0.90;;;;;;;28.85;33.93;99233.52;1860654;76;28004;-57
2022/07/10 12:05:38;;;;;;;1.00;1.00;;;;;;;28.85;33.93;99225.22;1855585;76;28119;-59
2022/07/10 12:08:27;;;;;;;0.90;0.90;;;;;;;28.89;33.88;99231.31;1851519;76;28099;-59
2022/07/10 12:11:24;;;;;;;0.80;0.80;;;;;;;28.88;33.90;99242.09;1843552;76;28144;-59
2022/07/10 12:14:19;;;;;;;0.90;0.90;;;;;;;28.90;33.96;99225.20;1841359;76;28084;-58
2022/07/10 12:17:14;;;;;;;0.60;0.60;;;;;;;28.89;33.92;99218.87;1851225;76;28160;-58
2022/07/10 12:20:04;;;;;;;0.75;0.75;;;;;;;28.89;33.97;99219.41;1854806;76;28001;-58
2022/07/10 12:22:54;;;;;;;1.00;1.00;;;;;;;28.86;33.99;99217.20;1840154;76;28140;-55
2022/07/10 12:25:44;;;;;;;0.93;0.93;;;;;;;28.87;34.02;99216.91;1860344;76;28257;-57
2022/07/10 12:28:33;;;;;;;0.87;0.87;;;;;;;28.89;33.98;99225.78;1860434;76;28102;-56
2022/07/10 12:31:28;;;;;;;0.90;0.90;;;;;;;28.92;34.00;99213.30;1854772;76;28597;-58
2022/07/10 12:34:18;;;;;;;0.85;0.85;;;;;;;28.92;33.99;99216.89;1850668;76;28103;-58
2022/07/10 12:37:16;;;;;;;0.70;0.70;;;;;;;28.90;33.99;99219.67;1864753;76;28078;-58
2022/07/10 12:40:09;;;;;;;0.80;0.80;;;;;;;28.93;33.98;99214.97;1860658;76;28035;-58
2022/07/10 12:43:06;;;;;;;0.80;0.80;;;;;;;28.92;34.00;99222.42;1857639;76;28135;-58
2022/07/10 12:46:15;;;;;;;0.80;0.80;;;;;;;28.92;34.00;99208.59;1839542;76;28101;-57
2022/07/10 12:49:08;;;;;;;0.80;0.80;;;;;;;28.92;34.02;99201.69;1853445;76;28117;-58
2022/07/10 12:51:57;;;;;;;0.82;0.82;;;;;;;28.89;34.12;99211.12;1860907;76;28140;-58
2022/07/10 12:54:45;;;;;;;1.00;0.90;;;;;;;28.89;34.17;99212.50;1843989;76;28135;-58
2022/07/10 12:57:33;;;;;;;0.80;0.80;;;;;;;28.90;34.12;99180.95;1851112;76;28147;-59
2022/07/10 13:00:35;;;;;;;1.10;0.90;;;;;;;28.91;34.13;99202.81;1853929;76;28087;-60
2022/07/10 13:03:27;;;;;;;0.78;0.78;;;;;;;28.94;34.10;99198.08;1851173;76;28055;-57
2022/07/10 13:06:31;;;;;;;0.75;0.75;;;;;;;28.95;34.09;99194.77;1863898;76;28152;-57
2022/07/10 13:09:27;;;;;;;0.80;0.80;;;;;;;28.95;34.16;99186.47;1860820;76;28051;-57
2022/07/10 13:12:15;;;;;;;0.90;0.90;;;;;;;28.95;34.16;99189.23;1839429;77;28074;-58
2022/07/10 13:15:04;;;;;;;0.87;0.87;;;;;;;28.91;34.19;99186.22;1853101;76;28067;-58
2022/07/10 13:17:53;;;;;;;0.80;0.80;;;;;;;28.95;34.17;99185.92;1850042;76;28052;-57
2022/07/10 13:20:41;;;;;;;0.90;0.90;;;;;;;28.94;34.16;99180.11;1867726;76;28305;-59
2022/07/10 13:23:31;;;;;;;0.80;0.80;;;;;;;28.96;34.14;99174.31;1858160;76;28079;-57
2022/07/10 13:26:19;;;;;;;0.80;0.80;;;;;;;28.97;34.16;99182.86;1853227;76;28052;-59
2022/07/10 13:29:07;;;;;;;0.80;0.80;;;;;;;29.01;34.12;99181.20;1849861;76;28009;-59
2022/07/10 13:31:56;;;;;;;0.90;0.90;;;;;;;29.03;34.09;99166.53;1847604;76;28107;-58
2022/07/10 13:34:44;;;;;;;0.88;0.88;;;;;;;29.04;34.05;99170.94;1857398;76;28005;-58